createdAt,value
2022-08-20T00:01:18.741Z,100875.28
2022-08-20T00:03:51.726Z,100872.59
2022-08-20T00:06:24.404Z,100871.53
2022-08-20T00:08:53.741Z,100870.72
2022-08-20T00:11:25.310Z,100872.59
2022-08-20T00:13:56.720Z,100845.22
2022-08-20T00:16:27.137Z,100864.44
2022-08-20T00:18:55.224Z,100866.28
2022-08-20T00:21:25.510Z,100856.28
2022-08-20T00:23:56.569Z,100860.69
2022-08-20T00:26:26.393Z,100845.94
2022-08-20T00:28:54.765Z,100861.72
2022-08-20T00:31:25.001Z,100854.44
2022-08-20T00:33:53.913Z,100844.56
2022-08-20T00:36:32.845Z,100842.84
2022-08-20T00:39:02.849Z,100842.69
2022-08-20T00:41:31.337Z,100842.03
2022-08-20T00:44:08.544Z,100840.00
2022-08-20T00:46:36.926Z,100839.31
2022-08-20T00:49:08.325Z,100837.44
2022-08-20T00:51:39.730Z,100836.59
2022-08-20T00:54:15.072Z,100836.41
2022-08-20T00:56:44.865Z,100839.31
2022-08-20T00:59:22.133Z,100836.59
2022-08-20T01:01:55.098Z,100836.75
2022-08-20T01:04:26.450Z,100840.31
2022-08-20T01:06:54.751Z,100825.03
2022-08-20T01:09:50.218Z,100825.75
2022-08-20T01:12:15.602Z,100818.94
2022-08-20T01:14:45.918Z,100831.50
2022-08-20T01:17:18.614Z,100824.22
2022-08-20T01:19:51.457Z,100822.31
2022-08-20T01:22:44.109Z,100825.03
2022-08-20T01:25:21.701Z,100803.34
2022-08-20T01:27:55.440Z,100816.41
2022-08-20T01:30:27.541Z,100817.22
2022-08-20T01:32:56.112Z,100813.84
2022-08-20T01:35:24.897Z,100815.53
2022-08-20T01:37:53.595Z,100808.41
2022-08-20T01:40:39.789Z,100802.97
2022-08-20T01:43:09.731Z,100807.75
2022-08-20T01:45:40.187Z,100817.75
2022-08-20T01:48:09.563Z,100822.31
2022-08-20T01:50:41.351Z,100822.31
2022-08-20T01:53:18.901Z,100827.94
2022-08-20T01:55:47.091Z,100829.31
2022-08-20T01:58:16.738Z,100830.13
2022-08-20T02:00:44.753Z,100823.03
2022-08-20T02:03:12.916Z,100823.03
2022-08-20T02:05:41.147Z,100821.31
2022-08-20T02:08:09.260Z,100817.75
2022-08-20T02:10:37.403Z,100817.94
2022-08-20T02:13:08.217Z,100792.16
2022-08-20T02:15:39.661Z,100809.78
2022-08-20T02:18:10.425Z,100808.06
2022-08-20T02:20:40.136Z,100804.50
2022-08-20T02:23:09.015Z,100798.25
2022-08-20T02:25:40.240Z,100796.53
2022-08-20T02:28:10.546Z,100800.09
2022-08-20T02:30:42.877Z,100790.25
2022-08-20T02:33:13.689Z,100786.69
2022-08-20T02:35:44.122Z,100773.28
2022-08-20T02:38:12.633Z,100781.25
2022-08-20T02:40:41.403Z,100784.81
2022-08-20T02:43:09.336Z,100785.00
2022-08-20T02:45:44.078Z,100786.69
2022-08-20T02:48:20.735Z,100782.09
2022-08-20T02:50:54.171Z,100780.44
2022-08-20T02:53:22.548Z,100775.00
2022-08-20T02:55:51.006Z,100770.75
2022-08-20T02:58:19.853Z,100782.09
2022-08-20T03:00:49.913Z,100771.44
2022-08-20T03:03:22.580Z,100770.41
2022-08-20T03:05:53.405Z,100778.72
2022-08-20T03:08:22.705Z,100771.44
2022-08-20T03:10:52.994Z,100777.53
2022-08-20T03:13:22.637Z,100764.16
2022-08-20T03:15:58.624Z,100775.81
2022-08-20T03:18:31.678Z,100765.81
2022-08-20T03:20:59.765Z,100772.44
2022-08-20T03:23:28.130Z,100753.28
2022-08-20T03:25:56.387Z,100757.84
2022-08-20T03:28:24.448Z,100764.28
2022-08-20T03:30:54.758Z,100759.91
2022-08-20T03:33:23.596Z,100769.06
2022-08-20T03:35:51.595Z,100777.19
2022-08-20T03:38:32.976Z,100765.34
2022-08-20T03:41:02.486Z,100764.81
2022-08-20T03:43:30.857Z,100768.38
2022-08-20T03:46:01.030Z,100766.53
2022-08-20T03:48:29.409Z,100750.38
2022-08-20T03:51:00.676Z,100757.53
2022-08-20T03:53:31.539Z,100758.53
2022-08-20T03:56:02.449Z,100759.56
2022-08-20T03:58:35.406Z,100755.16
2022-08-20T04:01:07.840Z,100763.09
2022-08-20T04:03:58.743Z,100761.75
2022-08-20T04:06:27.782Z,100768.06
2022-08-20T04:08:56.121Z,100777.19
2022-08-20T04:11:24.733Z,100769.06
2022-08-20T04:13:52.785Z,100774.34
2022-08-20T04:16:22.473Z,100778.91
2022-08-20T04:19:01.647Z,100774.66
2022-08-20T04:21:32.547Z,100784.66
2022-08-20T04:24:02.299Z,100774.66
2022-08-20T04:26:30.404Z,100773.81
2022-08-20T04:28:58.465Z,100770.25
2022-08-20T04:31:33.957Z,100767.34
2022-08-20T04:34:03.155Z,100764.81
2022-08-20T04:36:31.268Z,100772.09
2022-08-20T04:38:59.227Z,100779.56
2022-08-20T04:41:27.241Z,100783.16
2022-08-20T04:43:56.697Z,100779.56
2022-08-20T04:46:28.759Z,100779.38
2022-08-20T04:48:58.144Z,100775.84
2022-08-20T04:51:27.076Z,100777.72
2022-08-20T04:53:56.394Z,100770.56
2022-08-20T04:56:26.857Z,100767.88
2022-08-20T04:58:56.717Z,100777.03
2022-08-20T05:01:26.209Z,100779.75
2022-08-20T05:03:57.590Z,100773.28
2022-08-20T05:06:28.644Z,100775.34
2022-08-20T05:08:58.746Z,100764.47
2022-08-20T05:11:34.601Z,100764.47
2022-08-20T05:14:07.788Z,100770.75
2022-08-20T05:16:39.020Z,100774.47
2022-08-20T05:19:10.681Z,100771.63
2022-08-20T05:21:39.166Z,100768.19
2022-08-20T05:24:08.216Z,100758.00
2022-08-20T05:26:36.771Z,100773.44
2022-08-20T05:29:06.434Z,100756.63
2022-08-20T05:31:35.630Z,100775.81
2022-08-20T05:34:06.163Z,100757.69
2022-08-20T05:36:35.533Z,100764.25
2022-08-20T05:39:03.933Z,100766.81
2022-08-20T05:41:31.924Z,100773.25
2022-08-20T05:44:01.903Z,100756.13
2022-08-20T05:46:31.242Z,100763.44
2022-08-20T05:49:01.663Z,100764.63
2022-08-20T05:51:31.129Z,100752.06
2022-08-20T05:54:00.457Z,100771.06
2022-08-20T05:56:31.261Z,100765.81
2022-08-20T05:59:03.512Z,100754.09
2022-08-20T06:01:32.141Z,100756.97
2022-08-20T06:04:17.812Z,100735.25
2022-08-20T06:06:47.335Z,100748.16
2022-08-20T06:09:30.837Z,100749.84
2022-08-20T06:12:01.080Z,100734.78
2022-08-20T06:14:29.241Z,100734.91
2022-08-20T06:17:03.722Z,100697.25
2022-08-20T06:19:33.282Z,100695.94
2022-08-20T06:22:01.559Z,100700.50
2022-08-20T06:24:31.112Z,100705.94
2022-08-20T06:27:00.142Z,100715.94
2022-08-20T06:29:29.760Z,100696.25
2022-08-20T06:31:58.384Z,100709.69
2022-08-20T06:34:28.283Z,100703.53
2022-08-20T06:36:59.989Z,100698.97
2022-08-20T06:39:31.352Z,100692.53
2022-08-20T06:41:59.650Z,100699.16
2022-08-20T06:44:28.547Z,100689.97
2022-08-20T06:47:01.009Z,100689.97
2022-08-20T06:49:29.165Z,100698.13
2022-08-20T06:52:04.521Z,100701.16
2022-08-20T06:54:34.478Z,100694.56
2022-08-20T06:57:02.714Z,100694.56
2022-08-20T06:59:31.178Z,100699.16
2022-08-20T07:01:59.221Z,100702.69
2022-08-20T07:04:28.066Z,100710.81
2022-08-20T07:06:57.724Z,100704.59
2022-08-20T07:09:27.460Z,100701.88
2022-08-20T07:11:56.981Z,100694.22
2022-08-20T07:14:25.457Z,100692.03
2022-08-20T07:16:53.413Z,100697.44
2022-08-20T07:19:21.313Z,100707.28
2022-08-20T07:21:49.398Z,100708.31
2022-08-20T07:24:17.356Z,100702.03
2022-08-20T07:26:45.377Z,100709.31
2022-08-20T07:29:14.721Z,100715.44
2022-08-20T07:32:00.024Z,100712.88
2022-08-20T07:34:27.988Z,100717.63
2022-08-20T07:36:56.014Z,100717.63
2022-08-20T07:39:24.017Z,100716.78
2022-08-20T07:42:03.413Z,100707.78
2022-08-20T07:44:33.110Z,100692.53
2022-08-20T07:47:01.360Z,100686.25
2022-08-20T07:49:30.952Z,100688.97
2022-08-20T07:51:59.034Z,100683.72
2022-08-20T07:54:28.091Z,100696.44
2022-08-20T07:57:02.575Z,100694.59
2022-08-20T07:59:32.880Z,100699.47
2022-08-20T08:02:00.901Z,100699.31
2022-08-20T08:04:28.887Z,100693.19
2022-08-20T08:07:00.133Z,100696.78
2022-08-20T08:09:29.415Z,100692.53
2022-08-20T08:12:00.713Z,100690.16
2022-08-20T08:14:32.405Z,100672.53
2022-08-20T08:17:05.767Z,100686.94
2022-08-20T08:19:38.887Z,100689.63
2022-08-20T08:22:11.616Z,100693.38
2022-08-20T08:24:40.453Z,100686.25
2022-08-20T08:27:08.962Z,100693.53
2022-08-20T08:29:37.152Z,100696.25
2022-08-20T08:32:07.804Z,100692.53
2022-08-20T08:34:37.665Z,100688.13
2022-08-20T08:37:06.164Z,100683.53
2022-08-20T08:39:35.079Z,100689.97
2022-08-20T08:42:05.215Z,100691.69
2022-08-20T08:44:38.634Z,100680.81
2022-08-20T08:47:18.589Z,100675.41
2022-08-20T08:49:48.118Z,100688.28
2022-08-20T08:52:22.307Z,100684.53
2022-08-20T08:54:55.382Z,100686.25
2022-08-20T08:57:24.239Z,100678.44
2022-08-20T09:00:03.904Z,100685.59
2022-08-20T09:02:38.849Z,100669.31
2022-08-20T09:05:15.050Z,100661.16
2022-08-20T09:07:47.946Z,100651.19
2022-08-20T09:10:16.898Z,100650.47
2022-08-20T09:12:52.097Z,100643.38
2022-08-20T09:15:21.254Z,100653.03
2022-08-20T09:17:50.752Z,100656.59
2022-08-20T09:20:19.497Z,100652.84
2022-08-20T09:22:51.982Z,100651.19
2022-08-20T09:25:20.949Z,100634.03
2022-08-20T09:27:49.206Z,100653.88
2022-08-20T09:30:19.542Z,100657.41
2022-08-20T09:32:48.335Z,100645.22
2022-08-20T09:35:17.693Z,100658.97
2022-08-20T09:37:46.984Z,100648.28
2022-08-20T09:40:21.114Z,100651.19
2022-08-20T09:42:50.446Z,100651.00
2022-08-20T09:45:19.951Z,100648.28
2022-08-20T09:47:54.999Z,100648.47
2022-08-20T09:50:27.518Z,100635.91
2022-08-20T09:52:56.980Z,100636.75
2022-08-20T09:55:29.525Z,100636.75
2022-08-20T09:57:57.840Z,100632.34
2022-08-20T10:00:26.226Z,100631.34
2022-08-20T10:02:54.409Z,100638.63
2022-08-20T10:05:22.361Z,100633.38
2022-08-20T10:07:52.205Z,100635.91
2022-08-20T10:10:20.226Z,100637.09
2022-08-20T10:12:50.567Z,100637.94
2022-08-20T10:15:22.254Z,100641.66
2022-08-20T10:17:50.336Z,100634.38
2022-08-20T10:20:19.118Z,100636.25
2022-08-20T10:22:47.370Z,100629.13
2022-08-20T10:25:17.795Z,100622.69
2022-08-20T10:27:46.337Z,100621.00
2022-08-20T10:30:14.587Z,100619.81
2022-08-20T10:32:42.796Z,100620.63
2022-08-20T10:35:10.757Z,100621.50
2022-08-20T10:37:38.756Z,100624.19
2022-08-20T10:40:08.200Z,100621.50
2022-08-20T10:42:42.332Z,100620.31
2022-08-20T10:45:11.786Z,100612.88
2022-08-20T10:47:40.052Z,100617.78
2022-08-20T10:50:11.742Z,100609.31
2022-08-20T10:52:39.917Z,100630.28
2022-08-20T10:55:08.608Z,100627.59
2022-08-20T10:57:39.861Z,100613.69
2022-08-20T11:00:09.902Z,100622.88
2022-08-20T11:02:38.487Z,100609.31
2022-08-20T11:05:08.272Z,100629.97
2022-08-20T11:07:49.843Z,100611.34
2022-08-20T11:10:24.652Z,100627.44
2022-08-20T11:12:54.041Z,100635.22
2022-08-20T11:15:22.026Z,100638.94
2022-08-20T11:17:50.060Z,100642.53
2022-08-20T11:20:20.700Z,100643.38
2022-08-20T11:22:48.921Z,100633.53
2022-08-20T11:25:16.924Z,100627.94
2022-08-20T11:27:47.000Z,100644.22
2022-08-20T11:30:19.551Z,100638.44
2022-08-20T11:32:47.582Z,100631.50
2022-08-20T11:35:40.920Z,100637.63
2022-08-20T11:38:05.117Z,100636.75
2022-08-20T11:40:33.309Z,100577.91
2022-08-20T11:43:17.850Z,100642.00
2022-08-20T11:45:50.761Z,100642.00
2022-08-20T11:48:19.068Z,100634.72
2022-08-20T11:50:47.608Z,100645.56
2022-08-20T11:53:16.103Z,100646.41
2022-08-20T11:55:44.861Z,100645.56
2022-08-20T11:58:14.005Z,100641.16
2022-08-20T12:00:42.329Z,100625.56
2022-08-20T12:03:12.324Z,100649.28
2022-08-20T12:05:43.037Z,100649.28
2022-08-20T12:08:25.315Z,100650.47
2022-08-20T12:10:57.013Z,100642.34
2022-08-20T12:13:30.739Z,100650.47
2022-08-20T12:16:13.041Z,100648.78
2022-08-20T12:18:42.461Z,100647.75
2022-08-20T12:21:10.518Z,100648.78
2022-08-20T12:23:38.455Z,100654.03
2022-08-20T12:26:06.737Z,100653.38
2022-08-20T12:28:34.898Z,100649.66
2022-08-20T12:31:02.977Z,100645.91
2022-08-20T12:33:30.915Z,100647.75
2022-08-20T12:36:00.274Z,100645.56
2022-08-20T12:38:28.329Z,100644.72
2022-08-20T12:40:56.322Z,100648.09
2022-08-20T12:43:25.147Z,100647.09
2022-08-20T12:45:53.435Z,100646.09
2022-08-20T12:48:21.938Z,100646.09
2022-08-20T12:50:50.548Z,100648.63
2022-08-20T12:53:20.105Z,100655.75
2022-08-20T12:55:48.301Z,100653.03
2022-08-20T12:58:16.362Z,100662.00
2022-08-20T13:00:50.329Z,100629.13
2022-08-20T13:03:19.619Z,100653.69
2022-08-20T13:05:47.728Z,100660.84
2022-08-20T13:08:17.662Z,100657.09
2022-08-20T13:10:47.370Z,100657.94
2022-08-20T13:13:17.456Z,100657.94
2022-08-20T13:15:49.454Z,100627.44
2022-08-20T13:18:17.601Z,100655.03
2022-08-20T13:20:46.023Z,100651.31
2022-08-20T13:23:14.012Z,100652.19
2022-08-20T13:25:42.136Z,100656.09
2022-08-20T13:28:11.522Z,100666.22
2022-08-20T13:30:41.016Z,100665.22
2022-08-20T13:33:09.101Z,100672.34
2022-08-20T13:35:37.260Z,100671.16
2022-08-20T13:38:05.512Z,100674.69
2022-08-20T13:40:33.546Z,100677.25
2022-08-20T13:43:06.547Z,100677.25
2022-08-20T13:45:37.077Z,100678.97
2022-08-20T13:48:06.929Z,100677.25
2022-08-20T13:50:43.834Z,100679.78
2022-08-20T13:53:15.118Z,100684.41
2022-08-20T13:55:43.347Z,100680.84
2022-08-20T13:58:11.459Z,100691.50
2022-08-20T14:00:40.801Z,100685.91
2022-08-20T14:03:08.846Z,100685.91
2022-08-20T14:05:38.056Z,100685.91
2022-08-20T14:08:08.869Z,100686.63
2022-08-20T14:10:37.540Z,100694.75
2022-08-20T14:13:06.919Z,100684.06
2022-08-20T14:15:36.450Z,100677.78
2022-08-20T14:18:06.157Z,100684.91
2022-08-20T14:20:35.265Z,100685.91
2022-08-20T14:23:06.828Z,100691.34
2022-08-20T14:25:35.461Z,100689.50
2022-08-20T14:28:10.814Z,100687.63
2022-08-20T14:30:38.798Z,100685.06
2022-08-20T14:33:08.226Z,100687.63
2022-08-20T14:35:36.439Z,100695.06
2022-08-20T14:38:05.348Z,100692.06
2022-08-20T14:40:34.749Z,100699.34
2022-08-20T14:43:03.341Z,100707.47
2022-08-20T14:45:31.332Z,100699.63
2022-08-20T14:47:59.740Z,100705.44
2022-08-20T14:50:30.937Z,100706.09
2022-08-20T14:52:59.649Z,100704.44
2022-08-20T14:55:29.445Z,100713.44
2022-08-20T14:57:57.472Z,100703.56
2022-08-20T15:00:27.685Z,100705.28
2022-08-20T15:02:56.106Z,100701.53
2022-08-20T15:05:24.892Z,100690.50
2022-08-20T15:07:54.445Z,100709.53
2022-08-20T15:10:25.298Z,100701.53
2022-08-20T15:12:53.266Z,100705.28
2022-08-20T15:15:22.328Z,100705.78
2022-08-20T15:17:54.950Z,100730.19
2022-08-20T15:20:25.266Z,100733.09
2022-08-20T15:22:55.096Z,100726.78
2022-08-20T15:25:25.876Z,100742.91
2022-08-20T15:28:00.607Z,100747.34
2022-08-20T15:30:31.694Z,100750.25
2022-08-20T15:33:00.340Z,100751.22
2022-08-20T15:35:29.649Z,100761.91
2022-08-20T15:38:00.110Z,100770.25
2022-08-20T15:40:31.131Z,100757.53
2022-08-20T15:43:00.340Z,100753.63
2022-08-20T15:45:28.632Z,100766.69
2022-08-20T15:48:03.238Z,100772.09
2022-08-20T15:50:57.256Z,100774.81
2022-08-20T15:53:31.795Z,100775.84
2022-08-20T15:56:11.357Z,100765.63
2022-08-20T15:58:48.676Z,100777.88
2022-08-20T16:01:26.611Z,100782.97
2022-08-20T16:04:23.467Z,100783.28
2022-08-20T16:06:56.084Z,100790.75
2022-08-20T16:09:48.589Z,100787.91
2022-08-20T16:12:25.000Z,100785.34
2022-08-20T16:15:00.384Z,100779.06
2022-08-20T16:17:34.577Z,100793.47
2022-08-20T16:20:08.997Z,100789.19
2022-08-20T16:22:43.300Z,100791.06
2022-08-20T16:25:14.680Z,100798.53
2022-08-20T16:27:53.118Z,100797.69
2022-08-20T16:30:30.783Z,100788.34
2022-08-20T16:33:07.493Z,100790.91
2022-08-20T16:35:38.541Z,100785.28
2022-08-20T16:38:16.162Z,100786.81
2022-08-20T16:40:55.521Z,100793.28
2022-08-20T16:43:30.877Z,100786.00
2022-08-20T16:46:03.706Z,100787.66
2022-08-20T16:48:36.681Z,100787.66
2022-08-20T16:51:08.901Z,100788.53
2022-08-20T16:53:36.994Z,100794.13
2022-08-20T16:56:07.071Z,100792.09
2022-08-20T16:58:35.190Z,100790.56
2022-08-20T17:01:11.788Z,100799.38
2022-08-20T17:03:49.660Z,100793.09
2022-08-20T17:06:27.912Z,100796.13
2022-08-20T17:08:56.179Z,100798.19
2022-08-20T17:11:31.001Z,100807.00
2022-08-20T17:14:09.181Z,100806.16
2022-08-20T17:16:42.697Z,100799.22
2022-08-20T17:19:18.861Z,100799.88
2022-08-20T17:21:50.307Z,100807.34
2022-08-20T17:24:26.181Z,100816.16
2022-08-20T17:27:01.221Z,100817.16
2022-08-20T17:29:32.017Z,100815.50
2022-08-20T17:32:01.909Z,100806.16
2022-08-20T17:34:32.678Z,100825.31
2022-08-20T17:37:06.441Z,100822.59
2022-08-20T17:39:34.545Z,100829.06
2022-08-20T17:42:08.875Z,100824.44
2022-08-20T17:44:42.502Z,100838.19
2022-08-20T17:47:15.110Z,100836.69
2022-08-20T17:50:01.195Z,100842.78
2022-08-20T17:52:35.747Z,100847.34
2022-08-20T17:55:04.646Z,100847.53
2022-08-20T17:57:38.848Z,100850.25
2022-08-20T18:00:13.908Z,100856.53
2022-08-20T18:02:42.273Z,100851.25
2022-08-20T18:05:21.918Z,100867.19
2022-08-20T18:08:04.532Z,100870.91
2022-08-20T18:10:38.226Z,100863.81
2022-08-20T18:13:16.027Z,100864.31
2022-08-20T18:15:51.016Z,100874.13
2022-08-20T18:18:29.355Z,100880.59
2022-08-20T18:21:48.110Z,100891.59
2022-08-20T18:24:20.046Z,100882.75
2022-08-20T18:26:52.738Z,100896.50
2022-08-20T18:29:27.562Z,100902.09
2022-08-20T18:31:59.066Z,100903.94
2022-08-20T18:34:37.788Z,100896.13
2022-08-20T18:37:08.083Z,100902.72
2022-08-20T18:39:38.527Z,100908.16
2022-08-20T18:42:09.721Z,100913.94
2022-08-20T18:44:44.058Z,100903.53
2022-08-20T18:47:22.127Z,100912.41
2022-08-20T18:50:06.425Z,100918.81
2022-08-20T18:52:47.343Z,100921.84
2022-08-20T18:55:29.613Z,100887.50
2022-08-20T18:58:01.065Z,100914.88
2022-08-20T19:00:37.509Z,100914.03
2022-08-20T19:03:16.176Z,100916.06
2022-08-20T19:06:03.377Z,100909.78
2022-08-20T19:08:42.835Z,100918.09
2022-08-20T19:11:31.200Z,100913.84
2022-08-20T19:14:38.634Z,100923.13
2022-08-20T19:17:15.118Z,100919.72
2022-08-20T19:19:43.661Z,100927.00
2022-08-20T19:22:13.507Z,100923.28
2022-08-20T19:24:44.449Z,100920.72
2022-08-20T19:27:13.913Z,100916.47
2022-08-20T19:29:47.317Z,100921.72
2022-08-20T19:32:22.421Z,100924.44
2022-08-20T19:34:55.105Z,100924.44
2022-08-20T19:37:35.293Z,100929.19
2022-08-20T19:40:22.116Z,100922.03
2022-08-20T19:42:55.036Z,100926.97
2022-08-20T19:45:31.292Z,100928.50
2022-08-20T19:48:16.100Z,100931.34
2022-08-20T19:50:51.312Z,100925.44
2022-08-20T19:53:30.464Z,100931.00
2022-08-20T19:56:02.157Z,100931.16
2022-08-20T19:58:34.779Z,100925.75
2022-08-20T20:01:04.801Z,100929.44
2022-08-20T20:03:37.766Z,100929.31
2022-08-20T20:06:15.213Z,100927.59
2022-08-20T20:08:51.355Z,100932.16
2022-08-20T20:11:25.613Z,100932.16
2022-08-20T20:13:54.750Z,100930.47
2022-08-20T20:16:22.937Z,100931.66
2022-08-20T20:19:15.600Z,100930.47
2022-08-20T20:21:43.375Z,100930.63
2022-08-20T20:24:12.666Z,100932.50
2022-08-20T20:26:42.720Z,100935.03
2022-08-20T20:29:12.700Z,100941.47
2022-08-20T20:31:49.901Z,100940.63
2022-08-20T20:34:27.437Z,100929.94
2022-08-20T20:37:05.545Z,100931.78
2022-08-20T20:39:36.500Z,100938.56
2022-08-20T20:42:08.123Z,100932.28
2022-08-20T20:44:37.772Z,100943.13
2022-08-20T20:47:09.400Z,100945.84
2022-08-20T20:49:52.433Z,100946.84
2022-08-20T20:52:23.987Z,100947.00
2022-08-20T20:54:53.505Z,100947.84
2022-08-20T20:57:38.046Z,100941.59
2022-08-20T21:00:09.932Z,100941.91
2022-08-20T21:02:38.609Z,100948.19
2022-08-20T21:05:08.807Z,100944.78
2022-08-20T21:07:46.120Z,100949.34
2022-08-20T21:10:20.462Z,100947.94
2022-08-20T21:12:52.654Z,100951.69
2022-08-20T21:15:22.785Z,100943.88
2022-08-20T21:17:50.771Z,100942.16
2022-08-20T21:20:21.378Z,100917.63
2022-08-20T21:22:49.351Z,100934.50
2022-08-20T21:25:18.737Z,100936.34
2022-08-20T21:27:49.600Z,100913.22
2022-08-20T21:30:18.657Z,100940.78
2022-08-20T21:32:47.018Z,100937.22
2022-08-20T21:35:16.658Z,100941.63
2022-08-20T21:37:46.005Z,100933.50
2022-08-20T21:40:15.319Z,100932.66
2022-08-20T21:42:46.629Z,100930.78
2022-08-20T21:45:19.485Z,100929.78
2022-08-20T21:47:48.919Z,100939.78
2022-08-20T21:50:18.592Z,100937.06
2022-08-20T21:52:55.380Z,100933.50
2022-08-20T21:55:29.578Z,100936.34
2022-08-20T21:57:58.683Z,100941.63
2022-08-20T22:00:49.881Z,100938.75
2022-08-20T22:03:19.989Z,100934.66
2022-08-20T22:05:48.994Z,100940.09
2022-08-20T22:08:19.276Z,100943.66
2022-08-20T22:10:47.570Z,100949.38
2022-08-20T22:13:16.100Z,100951.25
2022-08-20T22:15:44.057Z,100942.09
2022-08-20T22:18:12.348Z,100945.81
2022-08-20T22:20:40.999Z,100943.25
2022-08-20T22:23:09.241Z,100922.13
2022-08-20T22:25:38.752Z,100943.25
2022-08-20T22:28:07.103Z,100931.91
2022-08-20T22:30:37.433Z,100941.00
2022-08-20T22:33:13.614Z,100941.00
2022-08-20T22:35:47.184Z,100950.16
2022-08-20T22:38:15.284Z,100949.28
2022-08-20T22:40:45.182Z,100944.88
2022-08-20T22:43:14.365Z,100927.78
2022-08-20T22:45:44.496Z,100943.31
2022-08-20T22:48:16.478Z,100944.34
2022-08-20T22:50:45.157Z,100941.94
2022-08-20T22:53:14.508Z,100942.78
2022-08-20T22:55:43.913Z,100946.50
2022-08-20T22:58:13.805Z,100917.75
2022-08-20T23:00:42.261Z,100931.44
2022-08-20T23:03:11.564Z,100936.84
2022-08-20T23:05:40.714Z,100933.44
2022-08-20T23:08:09.397Z,100933.28
2022-08-20T23:10:39.054Z,100934.28
2022-08-20T23:13:08.520Z,100931.56
2022-08-20T23:15:41.484Z,100934.28
2022-08-20T23:18:17.618Z,100942.56
2022-08-20T23:20:51.472Z,100951.69
2022-08-20T23:23:19.728Z,100947.44
2022-08-20T23:25:47.778Z,100952.03
2022-08-20T23:28:17.953Z,100950.31
2022-08-20T23:30:46.517Z,100946.91
2022-08-20T23:33:14.545Z,100949.75
2022-08-20T23:35:43.345Z,100944.50
2022-08-20T23:38:11.735Z,100940.41
2022-08-20T23:40:40.155Z,100937.56
2022-08-20T23:43:08.323Z,100933.81
2022-08-20T23:45:40.105Z,100929.94
2022-08-20T23:48:09.048Z,100933.69
2022-08-20T23:50:37.881Z,100934.53
2022-08-20T23:53:06.645Z,100932.66
2022-08-20T23:55:34.784Z,100932.66
2022-08-20T23:58:02.817Z,100933.69
